createdAt,value
2019-05-20T00:02:37.080Z,94.10
2019-05-20T00:06:42.813Z,94.90
2019-05-20T00:10:48.590Z,96.40
2019-05-20T00:14:54.277Z,94.10
2019-05-20T00:18:59.945Z,94.90
2019-05-20T00:23:05.694Z,95.60
2019-05-20T00:27:11.355Z,98.00
2019-05-20T00:31:17.739Z,99.00
2019-05-20T00:35:23.414Z,99.90
2019-05-20T00:39:29.111Z,98.10
2019-05-20T00:43:34.800Z,95.00
2019-05-20T00:47:40.557Z,95.50
2019-05-20T00:51:46.352Z,91.00
2019-05-20T00:55:52.266Z,91.00
2019-05-20T00:59:58.909Z,92.80
2019-05-20T01:04:04.700Z,92.40
2019-05-20T01:08:10.612Z,91.00
2019-05-20T01:12:16.296Z,91.70
2019-05-20T01:16:21.972Z,91.60
2019-05-20T01:20:28.110Z,91.20
2019-05-20T01:24:33.872Z,90.40
2019-05-20T01:28:39.535Z,93.70
2019-05-20T01:32:45.304Z,91.10
2019-05-20T01:36:50.982Z,92.20
2019-05-20T01:40:56.678Z,92.10
2019-05-20T01:45:02.377Z,93.30
2019-05-20T01:49:09.344Z,91.60
2019-05-20T01:53:15.074Z,91.60
2019-05-20T01:57:20.766Z,89.00
2019-05-20T02:01:26.510Z,89.00
2019-05-20T02:05:32.190Z,86.30
2019-05-20T02:09:37.855Z,84.40
2019-05-20T02:13:51.261Z,90.40
2019-05-20T02:17:56.932Z,88.40
2019-05-20T02:22:02.617Z,86.20
2019-05-20T02:26:08.337Z,84.40
2019-05-20T02:30:14.420Z,83.90
2019-05-20T02:34:20.102Z,81.10
2019-05-20T02:38:25.931Z,84.70
2019-05-20T02:42:31.689Z,88.10
2019-05-20T02:46:37.364Z,92.30
2019-05-20T02:50:43.051Z,92.60
2019-05-20T02:54:48.788Z,92.00
2019-05-20T02:58:55.447Z,91.50
2019-05-20T03:03:01.191Z,90.30
2019-05-20T03:07:06.947Z,90.60
2019-05-20T03:11:12.615Z,92.60
2019-05-20T03:15:19.754Z,94.00
2019-05-20T03:19:25.440Z,95.70
2019-05-20T03:23:31.175Z,95.40
2019-05-20T03:27:37.018Z,94.90
2019-05-20T03:31:43.253Z,94.10
2019-05-20T03:35:49.047Z,94.00
2019-05-20T03:39:54.719Z,95.00
2019-05-20T03:44:00.398Z,95.70
2019-05-20T03:48:07.018Z,92.60
2019-05-20T03:52:12.683Z,91.30
2019-05-20T03:56:18.454Z,88.90
2019-05-20T04:00:45.136Z,89.90
2019-05-20T04:05:01.325Z,92.30
2019-05-20T04:08:58.203Z,92.70
2019-05-20T04:13:04.972Z,92.10
2019-05-20T04:17:10.673Z,92.00
2019-05-20T04:21:16.352Z,93.20
2019-05-20T04:25:22.111Z,95.30
2019-05-20T04:29:27.939Z,95.60
2019-05-20T04:33:33.692Z,94.90
2019-05-20T04:37:39.358Z,91.80
2019-05-20T04:41:45.609Z,91.80
2019-05-20T04:45:52.039Z,91.90
2019-05-20T04:49:57.733Z,92.10
2019-05-20T04:54:03.445Z,90.40
2019-05-20T04:58:09.134Z,88.30
2019-05-20T05:02:14.824Z,89.20
2019-05-20T05:06:20.509Z,89.40
2019-05-20T05:10:27.878Z,90.50
2019-05-20T05:14:33.765Z,91.40
2019-05-20T05:18:39.587Z,90.60
2019-05-20T05:22:45.587Z,91.40
2019-05-20T05:26:51.389Z,91.70
2019-05-20T05:30:57.211Z,92.50
2019-05-20T05:35:03.052Z,90.60
2019-05-20T05:39:08.977Z,92.10
2019-05-20T05:43:14.645Z,89.00
2019-05-20T05:47:20.460Z,91.40
2019-05-20T05:51:26.159Z,90.00
2019-05-20T05:55:31.844Z,89.90
2019-05-20T05:59:37.525Z,88.30
2019-05-20T06:03:43.230Z,86.70
2019-05-20T06:07:49.082Z,87.20
2019-05-20T06:11:54.782Z,81.60
2019-05-20T06:16:00.545Z,82.80
2019-05-20T06:20:10.015Z,81.00
2019-05-20T06:24:15.767Z,77.00
2019-05-20T06:28:21.456Z,80.90
2019-05-20T06:32:27.120Z,79.10
2019-05-20T06:36:34.598Z,77.30
2019-05-20T06:40:40.260Z,76.00
2019-05-20T06:44:52.950Z,78.20
2019-05-20T06:48:53.443Z,77.50
2019-05-20T06:52:59.900Z,76.80
2019-05-20T06:57:05.643Z,76.40
2019-05-20T07:01:11.421Z,75.60
2019-05-20T07:05:17.186Z,75.20
2019-05-20T07:09:22.857Z,75.80
2019-05-20T07:13:28.529Z,75.10
2019-05-20T07:17:34.275Z,74.80
2019-05-20T07:21:40.004Z,74.50
2019-05-20T07:25:45.738Z,74.50
2019-05-20T07:29:51.610Z,74.10
2019-05-20T07:33:57.408Z,74.10
2019-05-20T07:38:03.134Z,74.40
2019-05-20T07:42:08.990Z,74.50
2019-05-20T07:46:15.291Z,75.10
2019-05-20T07:50:21.369Z,75.30
2019-05-20T07:54:27.848Z,75.30
2019-05-20T07:58:38.385Z,74.20
2019-05-20T08:02:44.275Z,76.20
2019-05-20T08:06:49.999Z,75.70
2019-05-20T08:10:55.858Z,76.20
2019-05-20T08:15:01.765Z,75.60
2019-05-20T08:19:07.611Z,75.40
2019-05-20T08:23:14.511Z,77.10
2019-05-20T08:27:20.470Z,77.90
2019-05-20T08:31:26.237Z,76.70
2019-05-20T08:35:32.610Z,75.80
2019-05-20T08:39:38.322Z,75.20
2019-05-20T08:43:43.994Z,75.50
2019-05-20T08:47:49.646Z,76.00
2019-05-20T08:51:55.444Z,75.70
2019-05-20T08:56:01.161Z,74.80
2019-05-20T09:00:23.592Z,74.20
2019-05-20T09:04:27.133Z,74.50
2019-05-20T09:08:32.903Z,75.00
2019-05-20T09:12:38.561Z,74.90
2019-05-20T09:16:44.264Z,74.60
2019-05-20T09:20:50.030Z,76.90
2019-05-20T09:24:56.030Z,76.90
2019-05-20T09:29:01.750Z,75.80
2019-05-20T09:33:07.655Z,75.40
2019-05-20T09:37:13.405Z,76.80
2019-05-20T09:41:19.106Z,76.50
2019-05-20T09:45:24.785Z,77.50
2019-05-20T09:49:30.654Z,77.30
2019-05-20T09:53:36.380Z,74.50
2019-05-20T09:57:42.228Z,72.90
2019-05-20T10:01:49.820Z,73.50
2019-05-20T10:05:55.318Z,73.70
2019-05-20T10:10:00.989Z,74.70
2019-05-20T10:14:06.700Z,73.90
2019-05-20T10:18:12.363Z,73.60
2019-05-20T10:22:18.306Z,72.80
2019-05-20T10:26:23.977Z,73.40
2019-05-20T10:30:29.864Z,73.50
2019-05-20T10:34:37.376Z,73.80
2019-05-20T10:38:58.128Z,74.40
2019-05-20T10:42:50.528Z,73.90
2019-05-20T10:46:56.217Z,74.10
2019-05-20T10:51:01.894Z,73.80
2019-05-20T10:55:08.400Z,73.00
2019-05-20T10:59:15.547Z,74.30
2019-05-20T11:03:22.047Z,75.20
2019-05-20T11:07:27.715Z,75.60
2019-05-20T11:11:33.497Z,76.30
2019-05-20T11:15:39.315Z,75.80
2019-05-20T11:19:45.999Z,75.70
2019-05-20T11:23:51.806Z,74.80
2019-05-20T11:27:57.462Z,74.40
2019-05-20T11:32:03.163Z,74.90
2019-05-20T11:36:08.856Z,74.50
2019-05-20T11:40:15.828Z,75.60
2019-05-20T11:44:21.603Z,75.90
2019-05-20T11:48:27.326Z,76.60
2019-05-20T11:52:34.292Z,77.00
2019-05-20T11:56:40.018Z,77.80
2019-05-20T12:00:45.710Z,79.00
2019-05-20T12:04:51.415Z,77.90
2019-05-20T12:08:57.117Z,77.60
2019-05-20T12:13:02.821Z,79.00
2019-05-20T12:17:08.575Z,78.10
2019-05-20T12:21:14.240Z,77.90
2019-05-20T12:25:20.298Z,78.90
2019-05-20T12:29:26.056Z,76.50
2019-05-20T12:33:31.773Z,76.20
2019-05-20T12:37:37.461Z,76.10
2019-05-20T12:41:43.168Z,76.70
2019-05-20T12:45:48.872Z,77.20
2019-05-20T12:49:54.561Z,76.20
2019-05-20T12:54:00.392Z,75.00
2019-05-20T12:58:06.064Z,74.90
2019-05-20T13:02:11.831Z,74.90
2019-05-20T13:06:17.596Z,77.40
2019-05-20T13:10:29.712Z,77.40
2019-05-20T13:14:31.371Z,75.90
2019-05-20T13:18:38.072Z,76.30
2019-05-20T13:22:43.852Z,77.00
2019-05-20T13:26:49.545Z,77.20
2019-05-20T13:30:55.286Z,75.70
2019-05-20T13:35:00.975Z,78.20
2019-05-20T13:39:08.377Z,77.00
2019-05-20T13:43:14.076Z,75.90
2019-05-20T13:47:19.802Z,75.20
2019-05-20T13:51:25.492Z,75.10
2019-05-20T13:55:31.221Z,74.70
2019-05-20T13:59:36.921Z,74.40
2019-05-20T14:03:42.622Z,74.50
2019-05-20T14:07:48.656Z,74.20
2019-05-20T14:11:54.339Z,73.50
2019-05-20T14:16:00.029Z,74.00
2019-05-20T14:20:07.357Z,75.90
2019-05-20T14:24:13.030Z,75.70
2019-05-20T14:28:18.835Z,75.60
2019-05-20T14:32:24.624Z,76.50
2019-05-20T14:36:39.561Z,78.20
2019-05-20T14:40:37.727Z,79.80
2019-05-20T14:44:43.424Z,78.90
2019-05-20T14:48:49.121Z,78.10
2019-05-20T14:52:54.808Z,78.00
2019-05-20T14:57:00.495Z,77.90
2019-05-20T15:01:06.196Z,77.40
2019-05-20T15:05:12.203Z,79.60
2019-05-20T15:09:17.920Z,78.00
2019-05-20T15:13:23.664Z,77.20
2019-05-20T15:17:29.375Z,77.20
2019-05-20T15:21:35.076Z,77.10
2019-05-20T15:25:40.836Z,78.40
2019-05-20T15:29:46.912Z,78.50
2019-05-20T15:33:52.673Z,78.30
2019-05-20T15:37:58.506Z,78.50
2019-05-20T15:42:04.836Z,78.80
2019-05-20T15:46:10.607Z,79.80
2019-05-20T15:50:17.596Z,78.80
2019-05-20T15:54:23.293Z,79.70
2019-05-20T15:58:29.129Z,84.80
2019-05-20T16:02:34.903Z,83.80
2019-05-20T16:22:07.056Z,79.90
2019-05-20T16:26:37.149Z,82.20
2019-05-20T16:41:44.371Z,81.30
2019-05-20T17:17:27.029Z,79.10
2019-05-20T17:43:31.151Z,80.00
2019-05-20T18:39:00.578Z,80.40
2019-05-20T18:43:26.150Z,80.70
2019-05-20T18:47:35.980Z,81.50
2019-05-20T18:52:13.734Z,80.00
2019-05-20T19:20:22.940Z,82.80
2019-05-20T19:24:29.711Z,87.30
2019-05-20T19:30:37.795Z,84.00
2019-05-20T19:34:48.153Z,83.20
2019-05-20T19:43:02.458Z,80.90
2019-05-20T19:47:08.303Z,84.60
2019-05-20T19:51:14.106Z,86.50
2019-05-20T19:55:19.937Z,85.90
2019-05-20T19:59:25.734Z,85.90
2019-05-20T20:03:31.426Z,85.70
2019-05-20T20:07:37.140Z,86.40
2019-05-20T20:11:43.261Z,86.90
2019-05-20T20:15:49.102Z,87.90
2019-05-20T20:19:58.076Z,88.60
2019-05-20T20:24:02.238Z,88.20
2019-05-20T20:28:09.071Z,87.00
2019-05-20T20:32:14.983Z,90.20
2019-05-20T20:36:22.298Z,90.00
2019-05-20T20:40:28.072Z,89.30
2019-05-20T20:44:33.835Z,89.10
2019-05-20T20:48:39.565Z,89.00
2019-05-20T20:52:46.265Z,88.60
2019-05-20T20:56:52.097Z,91.10
2019-05-20T21:00:57.889Z,91.40
2019-05-20T21:05:04.681Z,91.40
2019-05-20T21:09:10.472Z,91.40
2019-05-20T21:13:16.135Z,92.50
2019-05-20T21:17:21.830Z,93.00
2019-05-20T21:21:28.520Z,92.90
2019-05-20T21:25:34.305Z,91.40
2019-05-20T21:29:43.055Z,92.40
2019-05-20T21:33:48.772Z,92.20
2019-05-20T21:37:54.527Z,92.40
2019-05-20T21:42:00.213Z,91.70
2019-05-20T21:46:05.919Z,92.80
2019-05-20T21:50:11.949Z,93.60
2019-05-20T21:54:17.753Z,94.00
2019-05-20T21:58:23.929Z,92.60
2019-05-20T22:02:29.773Z,92.30
2019-05-20T22:06:35.704Z,92.30
2019-05-20T22:10:41.392Z,93.10
2019-05-20T22:14:47.071Z,93.80
2019-05-20T22:18:52.890Z,94.30
2019-05-20T22:23:16.439Z,95.10
2019-05-20T22:27:22.285Z,94.70
2019-05-20T22:31:29.385Z,94.40
2019-05-20T22:35:35.149Z,95.90
2019-05-20T22:39:40.870Z,94.80
2019-05-20T22:43:46.583Z,96.70
2019-05-20T22:47:52.271Z,97.70
2019-05-20T22:51:57.989Z,97.30
2019-05-20T22:56:03.719Z,95.60
2019-05-20T23:00:09.969Z,95.10
2019-05-20T23:04:17.261Z,98.00
2019-05-20T23:08:22.964Z,99.30
2019-05-20T23:12:28.727Z,97.60
2019-05-20T23:16:34.432Z,96.60
2019-05-20T23:20:40.186Z,97.30
2019-05-20T23:24:47.054Z,95.80
2019-05-20T23:28:52.749Z,96.40
2019-05-20T23:32:58.478Z,95.90
2019-05-20T23:37:04.351Z,99.80
2019-05-20T23:41:10.050Z,99.10
2019-05-20T23:45:16.122Z,99.00
2019-05-20T23:49:21.777Z,98.70
2019-05-20T23:53:27.474Z,98.40
2019-05-20T23:57:33.189Z,97.70
